Columbia Metropolitan Airport
KCAE : now visible

Airfield :











YOU CAN JOIN US ON...

 
LOGIN :

Register | Disclaimer

   EN    FR    IT 

 









Legend :    VFR   Marginal VFR   IFR   Intensive IFR   Very Intensive IFR
Visi :
Ceiling :
>= 8 km
>= 3000ft
5 to 8 km
1000 to 3000 ft
1500m to 5 km
500 to 1000 ft
800 to 1500m
200 to 500 ft
< 800m
< 200 ft
Symbols :   Thunderstorms  Fog  Heavy snow  Heavy precipitations  Wind > 20 kt







- Airport Elevation : 236 ft
- IATA code : CAE


KCAE - Columbia Metropolitan

CURRENT METAR :
  • 201056Z 01005KT 9SM OVC014 05/04 A3030 RMK AO2 RAB02E46 SLP259 P0005 T00500044

EXPIRED METARs :
  • 201036Z 05007KT 6SM -RA BR OVC016 04/04 A3029 RMK AO2 RAB02 P0005 T00440044
  • 201024Z 04005KT 2SM +RA BR OVC018 05/04 A3029 RMK AO2 RAB02 P0004 T00500044
  • 200956Z 05006KT 10SM OVC020 05/04 A3030 RMK AO2 SLP260 T00500039
  • 200856Z 03007KT 10SM OVC027 06/04 A3032 RMK AO2 SLP267 T00560039 58025
  • 200840Z 05006KT 10SM OVC029 05/03 A3031 RMK AO2 T00500033
  • 200756Z 03006KT 10SM OVC033 05/04 A3035 RMK AO2 SLP276 T00500039

TAF KCAE
Valid from the 20 at 11:00 until the 21 at 06:00 UTC


201044Z 2011/2106 04010KT 6SM -RA OVC012 WS020/11038KT
FM201300 04008KT 6SM -RA BR OVC008 WS020/14038KT
FM201800 04005KT 2SM -RA BR OVC007 WS020/21035KT
FM202300 VRB04KT 1/2SM FG VV003 WS020/22032KT
KZJX FIR / North America



MET'MAP, your aeronautical weather chart ! - Copyright ORBIFLY December 2007 - Disclaimer

ORBIFLY MET'MAP TEAM :

Programming & Development : Alexandra Zaïnal
Concept & Development : Baudouin d'Aumeries
Co-Development & Prog : Marc-Olivier Méhu
Technical & hardware support : Manuel Goepfert

Contact : metmap@orbifly.com




SOURCES & CREDITS :

   NOAA       Earth
Advisory